createdAt,value
2023-11-07T00:01:56.142Z,10.12
2023-11-07T00:04:26.774Z,10.15
2023-11-07T00:07:00.391Z,10.10
2023-11-07T00:09:32.162Z,10.15
2023-11-07T00:12:03.753Z,10.03
2023-11-07T00:14:34.844Z,9.98
2023-11-07T00:17:05.674Z,9.88
2023-11-07T00:19:38.808Z,9.90
2023-11-07T00:22:09.563Z,9.80
2023-11-07T00:24:41.212Z,9.77
2023-11-07T00:27:11.784Z,9.57
2023-11-07T00:29:42.648Z,9.54
2023-11-07T00:32:13.226Z,9.43
2023-11-07T00:34:44.689Z,9.58
2023-11-07T00:37:15.387Z,9.38
2023-11-07T00:39:46.027Z,9.42
2023-11-07T00:42:16.572Z,9.43
2023-11-07T00:44:47.529Z,9.28
2023-11-07T00:47:19.046Z,9.34
2023-11-07T00:49:49.926Z,9.31
2023-11-07T00:52:22.159Z,9.21
2023-11-07T00:54:57.650Z,9.21
2023-11-07T00:57:29.804Z,9.10
2023-11-07T01:00:00.358Z,8.98
2023-11-07T01:02:31.080Z,9.00
2023-11-07T01:05:03.329Z,9.02
2023-11-07T01:07:33.965Z,8.96
2023-11-07T01:10:04.971Z,8.96
2023-11-07T01:12:36.039Z,8.86
2023-11-07T01:15:08.391Z,8.75
2023-11-07T01:17:39.226Z,8.74
2023-11-07T01:20:11.802Z,8.70
2023-11-07T01:22:43.266Z,8.68
2023-11-07T01:25:14.174Z,8.64
2023-11-07T01:27:44.713Z,8.60
2023-11-07T01:30:17.519Z,8.57
2023-11-07T01:32:51.117Z,8.57
2023-11-07T01:35:23.050Z,8.55
2023-11-07T01:37:54.461Z,8.54
2023-11-07T01:40:25.330Z,8.51
2023-11-07T01:42:56.949Z,8.48
2023-11-07T01:45:27.454Z,8.40
2023-11-07T01:47:58.643Z,8.50
2023-11-07T01:50:29.271Z,8.41
2023-11-07T01:53:02.511Z,8.41
2023-11-07T01:55:33.724Z,8.38
2023-11-07T01:58:04.881Z,8.49
2023-11-07T02:00:36.396Z,8.34
2023-11-07T02:03:08.313Z,8.48
2023-11-07T02:05:39.185Z,8.50
2023-11-07T02:08:10.926Z,8.46
2023-11-07T02:10:42.536Z,8.40
2023-11-07T02:13:13.369Z,8.32
2023-11-07T02:15:44.408Z,8.30
2023-11-07T02:18:16.705Z,8.26
2023-11-07T02:20:48.143Z,8.39
2023-11-07T02:23:34.581Z,8.28
2023-11-07T02:26:06.774Z,8.19
2023-11-07T02:28:37.837Z,8.35
2023-11-07T02:31:09.492Z,8.16
2023-11-07T02:33:40.206Z,8.11
2023-11-07T02:36:11.688Z,8.09
2023-11-07T02:38:42.410Z,8.07
2023-11-07T02:41:13.819Z,8.12
2023-11-07T02:43:45.103Z,8.02
2023-11-07T02:46:15.726Z,8.10
2023-11-07T02:48:46.374Z,8.10
2023-11-07T02:51:18.468Z,8.14
2023-11-07T02:53:51.685Z,8.12
2023-11-07T02:56:27.337Z,8.08
2023-11-07T02:58:59.987Z,8.10
2023-11-07T03:01:32.227Z,8.08
2023-11-07T03:04:03.353Z,8.14
2023-11-07T03:06:34.009Z,8.11
2023-11-07T03:09:06.389Z,8.12
2023-11-07T03:11:38.714Z,8.13
2023-11-07T03:14:09.485Z,8.20
2023-11-07T03:16:41.430Z,8.18
2023-11-07T03:19:12.179Z,8.12
2023-11-07T03:21:42.825Z,8.06
2023-11-07T03:24:13.593Z,8.00
2023-11-07T03:26:44.212Z,8.03
2023-11-07T03:29:15.183Z,7.95
2023-11-07T03:31:45.910Z,7.94
2023-11-07T03:34:17.586Z,8.00
2023-11-07T03:36:48.694Z,8.05
2023-11-07T03:39:19.335Z,8.10
2023-11-07T03:41:49.977Z,8.04
2023-11-07T03:44:21.847Z,8.01
2023-11-07T03:46:54.221Z,7.96
2023-11-07T03:49:24.622Z,7.98
2023-11-07T03:51:55.321Z,7.94
2023-11-07T03:54:26.022Z,7.87
2023-11-07T03:56:56.916Z,7.87
2023-11-07T03:59:27.686Z,7.94
2023-11-07T04:02:00.219Z,7.93
2023-11-07T04:04:31.169Z,7.80
2023-11-07T04:07:01.980Z,7.72
2023-11-07T04:09:32.567Z,7.75
2023-11-07T04:12:03.821Z,7.86
2023-11-07T04:14:34.584Z,7.71
2023-11-07T04:17:05.843Z,7.90
2023-11-07T04:19:38.757Z,7.74
2023-11-07T04:22:09.652Z,7.72
2023-11-07T04:24:40.156Z,7.80
2023-11-07T04:27:11.166Z,7.64
2023-11-07T04:29:43.055Z,7.68
2023-11-07T04:32:16.769Z,7.86
2023-11-07T04:34:54.845Z,7.74
2023-11-07T04:37:25.446Z,7.91
2023-11-07T04:39:57.188Z,7.60
2023-11-07T04:42:27.737Z,7.69
2023-11-07T04:44:58.775Z,7.64
2023-11-07T04:47:29.364Z,7.61
2023-11-07T04:50:00.911Z,7.60
2023-11-07T04:52:33.085Z,7.72
2023-11-07T04:55:03.748Z,7.71
2023-11-07T04:57:34.414Z,7.58
2023-11-07T05:00:09.297Z,7.62
2023-11-07T05:02:40.901Z,7.90
2023-11-07T05:05:12.376Z,7.54
2023-11-07T05:07:42.926Z,7.58
2023-11-07T05:10:13.617Z,7.70
2023-11-07T05:12:44.718Z,7.62
2023-11-07T05:15:15.909Z,7.60
2023-11-07T05:17:46.571Z,7.68
2023-11-07T05:20:17.411Z,7.62
2023-11-07T05:22:47.891Z,7.71
2023-11-07T05:25:19.320Z,7.72
2023-11-07T05:27:49.982Z,7.58
2023-11-07T05:30:20.677Z,7.56
2023-11-07T05:32:52.164Z,7.65
2023-11-07T05:35:23.007Z,7.71
2023-11-07T05:37:53.644Z,7.92
2023-11-07T05:40:25.362Z,7.66
2023-11-07T05:42:55.961Z,7.69
2023-11-07T05:45:26.955Z,7.62
2023-11-07T05:47:57.674Z,7.54
2023-11-07T05:50:28.388Z,7.57
2023-11-07T05:53:01.034Z,7.70
2023-11-07T05:55:31.160Z,7.50
2023-11-07T05:58:01.707Z,7.58
2023-11-07T06:00:34.684Z,7.56
2023-11-07T06:03:06.269Z,7.58
2023-11-07T06:05:37.192Z,7.60
2023-11-07T06:08:07.667Z,7.52
2023-11-07T06:10:38.956Z,7.59
2023-11-07T06:13:09.761Z,7.64
2023-11-07T06:15:40.800Z,7.62
2023-11-07T06:18:11.674Z,7.62
2023-11-07T06:20:42.275Z,7.60
2023-11-07T06:23:12.716Z,7.59
2023-11-07T06:25:43.415Z,7.54
2023-11-07T06:28:13.941Z,7.64
2023-11-07T06:30:45.151Z,7.61
2023-11-07T06:33:15.911Z,7.62
2023-11-07T06:35:46.772Z,7.63
2023-11-07T06:38:18.961Z,7.68
2023-11-07T06:40:50.646Z,7.64
2023-11-07T06:43:21.406Z,7.66
2023-11-07T06:45:52.192Z,7.66
2023-11-07T06:48:24.291Z,7.70
2023-11-07T06:50:55.700Z,7.70
2023-11-07T06:53:28.018Z,7.80
2023-11-07T06:55:59.247Z,7.84
2023-11-07T06:58:30.284Z,7.82
2023-11-07T07:01:00.877Z,7.75
2023-11-07T07:03:32.042Z,7.81
2023-11-07T07:06:03.269Z,7.84
2023-11-07T07:08:34.202Z,7.86
2023-11-07T07:11:06.829Z,7.80
2023-11-07T07:13:37.964Z,7.82
2023-11-07T07:16:09.901Z,8.19
2023-11-07T07:18:40.769Z,8.02
2023-11-07T07:21:12.222Z,8.06
2023-11-07T07:23:44.415Z,8.34
2023-11-07T07:26:18.381Z,8.22
2023-11-07T07:28:50.599Z,8.36
2023-11-07T07:31:22.997Z,8.50
2023-11-07T07:33:55.170Z,8.44
2023-11-07T07:36:25.842Z,8.48
2023-11-07T07:38:56.425Z,8.70
2023-11-07T07:41:27.266Z,8.87
2023-11-07T07:43:58.392Z,8.74
2023-11-07T07:46:30.690Z,8.84
2023-11-07T07:49:01.782Z,8.83
2023-11-07T07:51:33.480Z,8.92
2023-11-07T07:54:08.846Z,8.86
2023-11-07T07:56:38.247Z,8.80
2023-11-07T07:59:10.066Z,8.95
2023-11-07T08:01:40.923Z,8.94
2023-11-07T08:04:13.107Z,9.01
2023-11-07T08:06:43.658Z,9.00
2023-11-07T08:09:14.672Z,9.09
2023-11-07T08:11:46.528Z,9.07
2023-11-07T08:14:18.323Z,9.17
2023-11-07T08:16:49.355Z,9.21
2023-11-07T08:19:22.426Z,9.30
2023-11-07T08:21:53.004Z,9.42
2023-11-07T08:24:23.510Z,9.39
2023-11-07T08:26:54.153Z,9.58
2023-11-07T08:29:24.691Z,9.62
2023-11-07T08:31:56.295Z,9.61
2023-11-07T08:34:28.650Z,9.60
2023-11-07T08:37:07.263Z,9.84
2023-11-07T08:39:34.985Z,9.79
2023-11-07T08:42:06.939Z,9.92
2023-11-07T08:44:37.690Z,10.08
2023-11-07T08:47:08.381Z,10.14
2023-11-07T08:49:39.287Z,10.22
2023-11-07T08:52:09.817Z,10.36
2023-11-07T08:54:40.382Z,10.51
2023-11-07T08:57:12.047Z,10.72
2023-11-07T08:59:44.469Z,10.96
2023-11-07T09:02:16.658Z,11.36
2023-11-07T09:04:49.226Z,11.34
2023-11-07T09:07:20.505Z,11.64
2023-11-07T09:09:51.165Z,11.91
2023-11-07T09:12:26.008Z,12.13
2023-11-07T09:14:56.785Z,12.55
2023-11-07T09:17:28.425Z,12.68
2023-11-07T09:20:00.823Z,12.66
2023-11-07T09:22:31.766Z,12.38
2023-11-07T09:25:04.509Z,12.69
2023-11-07T09:27:35.282Z,12.64
2023-11-07T09:30:09.306Z,12.50
2023-11-07T09:32:41.107Z,12.48
2023-11-07T09:35:12.560Z,12.39
2023-11-07T09:37:43.557Z,12.43
2023-11-07T09:40:18.174Z,12.10
2023-11-07T09:42:52.093Z,12.16
2023-11-07T09:45:24.243Z,12.25
2023-11-07T09:47:56.838Z,12.39
2023-11-07T09:50:27.504Z,12.41
2023-11-07T09:52:59.024Z,12.51
2023-11-07T09:55:32.692Z,12.41
2023-11-07T09:58:16.019Z,12.30
2023-11-07T10:00:45.477Z,12.14
2023-11-07T10:03:17.335Z,12.12
2023-11-07T10:05:52.399Z,11.93
2023-11-07T10:08:28.741Z,11.81
2023-11-07T10:11:13.842Z,11.87
2023-11-07T10:14:04.800Z,12.24
2023-11-07T10:16:42.940Z,11.91
2023-11-07T10:19:21.646Z,12.07
2023-11-07T10:21:52.859Z,12.43
2023-11-07T10:24:23.568Z,12.65
2023-11-07T10:26:58.101Z,12.81
2023-11-07T10:29:30.640Z,13.16
2023-11-07T10:32:11.485Z,12.86
2023-11-07T10:34:42.410Z,13.06
2023-11-07T10:37:13.024Z,13.00
2023-11-07T10:39:45.783Z,12.75
2023-11-07T10:42:21.206Z,12.65
2023-11-07T10:44:55.028Z,12.55
2023-11-07T10:47:25.743Z,12.40
2023-11-07T10:49:58.733Z,12.12
2023-11-07T10:52:29.766Z,11.92
2023-11-07T10:55:02.270Z,11.98
2023-11-07T10:57:37.495Z,12.02
2023-11-07T11:00:14.927Z,12.17
2023-11-07T11:02:49.936Z,12.08
2023-11-07T11:05:26.460Z,12.15
2023-11-07T11:08:00.481Z,12.38
2023-11-07T11:10:33.004Z,12.26
2023-11-07T11:13:04.960Z,12.22
2023-11-07T11:15:36.378Z,12.12
2023-11-07T11:18:12.459Z,12.21
2023-11-07T11:20:53.708Z,12.19
2023-11-07T11:23:45.723Z,12.40
2023-11-07T11:26:40.836Z,12.32
2023-11-07T11:29:29.043Z,12.51
2023-11-07T11:32:01.212Z,12.54
2023-11-07T11:34:33.138Z,12.68
2023-11-07T11:37:05.219Z,12.67
2023-11-07T11:39:39.028Z,12.68
2023-11-07T11:42:11.248Z,12.97
2023-11-07T11:44:41.899Z,12.98
2023-11-07T11:47:16.173Z,13.06
2023-11-07T11:50:06.471Z,13.28
2023-11-07T11:52:37.585Z,13.34
2023-11-07T11:55:09.974Z,13.46
2023-11-07T11:58:13.590Z,13.60
2023-11-07T12:00:46.541Z,13.82
2023-11-07T12:03:19.596Z,14.06
2023-11-07T12:06:07.188Z,14.14
2023-11-07T12:08:40.341Z,13.95
2023-11-07T12:11:12.270Z,13.90
2023-11-07T12:13:43.681Z,13.75
2023-11-07T12:16:20.372Z,13.78
2023-11-07T12:18:51.994Z,13.86
2023-11-07T12:21:30.446Z,13.90
2023-11-07T12:24:02.800Z,14.03
2023-11-07T12:26:43.178Z,13.93
2023-11-07T12:29:14.322Z,13.83
2023-11-07T12:31:46.791Z,13.97
2023-11-07T12:34:20.589Z,13.77
2023-11-07T12:36:51.830Z,13.64
2023-11-07T12:39:22.609Z,13.78
2023-11-07T12:41:53.843Z,13.72
2023-11-07T12:44:24.469Z,13.83
2023-11-07T12:46:55.798Z,13.82
2023-11-07T12:49:28.172Z,13.84
2023-11-07T12:51:58.755Z,13.62
2023-11-07T12:54:29.387Z,13.58
2023-11-07T12:57:00.042Z,13.48
2023-11-07T12:59:31.369Z,13.20
2023-11-07T13:02:04.438Z,12.94
2023-11-07T13:04:35.865Z,12.88
2023-11-07T13:07:08.142Z,12.93
2023-11-07T13:09:38.715Z,12.76
2023-11-07T13:12:15.701Z,12.82
2023-11-07T13:14:49.016Z,12.77
2023-11-07T13:17:20.222Z,12.59
2023-11-07T13:19:52.317Z,12.64
2023-11-07T13:22:24.079Z,12.65
2023-11-07T13:24:54.844Z,12.50
2023-11-07T13:27:25.519Z,12.52
2023-11-07T13:29:56.295Z,12.63
2023-11-07T13:32:26.961Z,12.58
2023-11-07T13:34:58.667Z,12.68
2023-11-07T13:37:29.959Z,12.68
2023-11-07T13:40:00.570Z,12.80
2023-11-07T13:42:31.181Z,12.93
2023-11-07T13:45:02.004Z,12.81
2023-11-07T13:47:33.062Z,12.79
2023-11-07T13:50:05.369Z,12.69
2023-11-07T13:52:36.107Z,12.64
2023-11-07T13:55:07.655Z,12.70
2023-11-07T13:57:38.691Z,12.70
2023-11-07T14:00:11.862Z,12.72
2023-11-07T14:02:43.006Z,12.62
2023-11-07T14:05:14.656Z,12.60
2023-11-07T14:07:46.185Z,12.54
2023-11-07T14:10:18.389Z,12.40
2023-11-07T14:12:49.747Z,12.40
2023-11-07T14:15:23.645Z,12.33
2023-11-07T14:17:55.453Z,12.44
2023-11-07T14:20:26.042Z,12.29
2023-11-07T14:22:56.682Z,12.32
2023-11-07T14:25:28.889Z,12.28
2023-11-07T14:28:03.083Z,12.20
2023-11-07T14:30:39.755Z,12.27
2023-11-07T14:33:09.619Z,12.27
2023-11-07T14:35:42.331Z,12.26
2023-11-07T14:38:12.899Z,12.22
2023-11-07T14:40:43.590Z,12.34
2023-11-07T14:43:17.345Z,12.38
2023-11-07T14:45:47.195Z,12.21
2023-11-07T14:48:18.361Z,12.19
2023-11-07T14:50:50.776Z,12.15
2023-11-07T14:53:23.858Z,12.20
2023-11-07T14:55:56.672Z,12.05
2023-11-07T14:58:27.742Z,11.94
2023-11-07T15:00:58.543Z,11.88
2023-11-07T15:03:29.586Z,11.94
2023-11-07T15:06:03.844Z,11.83
2023-11-07T15:08:34.125Z,11.88
2023-11-07T15:11:04.745Z,11.70
2023-11-07T15:13:36.604Z,11.59
2023-11-07T15:16:07.667Z,11.68
2023-11-07T15:18:38.387Z,11.90
2023-11-07T15:21:10.824Z,11.72
2023-11-07T15:23:42.491Z,11.52
2023-11-07T15:26:13.934Z,11.50
2023-11-07T15:28:44.964Z,11.54
2023-11-07T15:31:15.773Z,11.51
2023-11-07T15:33:46.516Z,11.36
2023-11-07T15:36:17.316Z,11.20
2023-11-07T15:38:48.550Z,11.00
2023-11-07T15:41:19.178Z,10.99
2023-11-07T15:43:50.212Z,10.88
2023-11-07T15:46:20.743Z,10.70
2023-11-07T15:48:52.245Z,10.67
2023-11-07T15:51:24.047Z,10.60
2023-11-07T15:53:55.326Z,10.61
2023-11-07T15:56:25.822Z,10.53
2023-11-07T15:58:56.464Z,10.47
2023-11-07T16:01:27.722Z,10.39
2023-11-07T16:04:01.736Z,10.37
2023-11-07T16:06:32.531Z,10.39
2023-11-07T16:09:03.130Z,10.39
2023-11-07T16:11:33.876Z,10.30
2023-11-07T16:14:05.964Z,10.29
2023-11-07T16:16:36.495Z,10.23
2023-11-07T16:19:07.859Z,10.15
2023-11-07T16:21:38.802Z,10.24
2023-11-07T16:24:09.731Z,10.18
2023-11-07T16:26:40.872Z,10.15
2023-11-07T16:29:11.926Z,10.18
2023-11-07T16:31:42.503Z,10.11
2023-11-07T16:34:13.242Z,10.12
2023-11-07T16:36:44.119Z,10.12
2023-11-07T16:39:14.820Z,10.24
2023-11-07T16:41:45.503Z,10.14
2023-11-07T16:44:16.113Z,10.23
2023-11-07T16:46:47.355Z,10.14
2023-11-07T16:49:18.419Z,10.12
2023-11-07T16:51:50.154Z,10.08
2023-11-07T16:54:22.446Z,10.17
2023-11-07T16:56:53.084Z,10.16
2023-11-07T16:59:24.196Z,10.18
2023-11-07T17:01:54.829Z,10.16
2023-11-07T17:04:25.596Z,9.98
2023-11-07T17:06:56.478Z,10.16
2023-11-07T17:09:27.257Z,10.03
2023-11-07T17:11:57.910Z,10.32
2023-11-07T17:14:29.611Z,10.08
2023-11-07T17:17:01.089Z,10.13
2023-11-07T17:19:32.217Z,10.32
2023-11-07T17:22:02.814Z,10.40
2023-11-07T17:24:33.645Z,10.22
2023-11-07T17:27:04.369Z,10.20
2023-11-07T17:29:35.838Z,10.20
2023-11-07T17:32:08.554Z,10.22
2023-11-07T17:34:42.819Z,10.16
2023-11-07T17:37:13.615Z,10.18
2023-11-07T17:39:44.306Z,10.22
2023-11-07T17:42:15.155Z,10.36
2023-11-07T17:44:45.867Z,10.27
2023-11-07T17:47:18.566Z,10.28
2023-11-07T17:49:49.159Z,10.23
2023-11-07T17:52:19.708Z,10.22
2023-11-07T17:54:51.129Z,10.23
2023-11-07T17:57:21.825Z,10.06
2023-11-07T17:59:54.999Z,9.93
2023-11-07T18:02:25.760Z,9.80
2023-11-07T18:04:56.280Z,9.77
2023-11-07T18:07:26.934Z,9.82
2023-11-07T18:09:59.259Z,9.62
2023-11-07T18:13:37.331Z,9.48
2023-11-07T18:16:11.686Z,9.32
2023-11-07T18:18:57.340Z,9.39
2023-11-07T18:21:14.542Z,9.31
2023-11-07T18:23:45.761Z,9.22
2023-11-07T18:26:17.940Z,9.13
2023-11-07T18:28:51.551Z,9.12
2023-11-07T18:31:22.078Z,9.14
2023-11-07T18:33:52.700Z,9.17
2023-11-07T18:36:23.347Z,9.08
2023-11-07T18:38:54.109Z,9.10
2023-11-07T18:41:25.759Z,9.04
2023-11-07T18:43:57.457Z,8.98
2023-11-07T18:46:30.326Z,8.94
2023-11-07T18:49:00.920Z,9.02
2023-11-07T18:51:32.687Z,8.95
2023-11-07T18:54:04.456Z,9.06
2023-11-07T18:56:35.052Z,9.02
2023-11-07T18:59:07.211Z,8.98
2023-11-07T19:01:37.879Z,8.94
2023-11-07T19:04:09.655Z,9.17
2023-11-07T19:06:40.549Z,9.14
2023-11-07T19:09:12.655Z,8.98
2023-11-07T19:11:43.793Z,8.99
2023-11-07T19:14:14.619Z,8.99
2023-11-07T19:16:45.819Z,8.96
2023-11-07T19:19:17.552Z,9.03
2023-11-07T19:21:48.347Z,9.22
2023-11-07T19:24:21.087Z,9.12
2023-11-07T19:26:51.771Z,9.20
2023-11-07T19:29:22.599Z,9.22
2023-11-07T19:31:55.300Z,9.20
2023-11-07T19:34:26.458Z,9.14
2023-11-07T19:36:57.426Z,9.12
2023-11-07T19:39:30.454Z,9.05
2023-11-07T19:42:04.617Z,8.86
2023-11-07T19:44:36.162Z,8.83
2023-11-07T19:47:07.133Z,8.85
2023-11-07T19:49:37.957Z,8.80
2023-11-07T19:52:09.372Z,8.74
2023-11-07T19:54:41.123Z,8.72
2023-11-07T19:57:11.740Z,8.81
2023-11-07T19:59:43.230Z,8.81
2023-11-07T20:02:15.088Z,8.78
2023-11-07T20:04:46.709Z,8.78
2023-11-07T20:07:17.380Z,8.72
2023-11-07T20:09:48.151Z,8.64
2023-11-07T20:12:19.738Z,8.59
2023-11-07T20:14:53.033Z,8.51
2023-11-07T20:17:23.480Z,8.52
2023-11-07T20:19:54.558Z,8.53
2023-11-07T20:22:25.137Z,8.48
2023-11-07T20:24:57.576Z,8.45
2023-11-07T20:27:28.331Z,8.42
2023-11-07T20:29:59.200Z,8.43
2023-11-07T20:32:30.069Z,8.39
2023-11-07T20:35:00.906Z,8.53
2023-11-07T20:37:31.477Z,8.40
2023-11-07T20:40:02.112Z,8.42
2023-11-07T20:42:32.804Z,8.26
2023-11-07T20:45:10.492Z,8.23
2023-11-07T20:47:36.476Z,8.20
2023-11-07T20:50:08.106Z,8.14
2023-11-07T20:52:39.538Z,8.20
2023-11-07T20:55:11.933Z,8.20
2023-11-07T20:57:51.660Z,8.13
2023-11-07T21:00:17.374Z,8.22
2023-11-07T21:02:48.075Z,8.22
2023-11-07T21:05:21.584Z,8.17
2023-11-07T21:07:52.219Z,8.12
2023-11-07T21:10:23.285Z,8.08
2023-11-07T21:12:53.894Z,8.04
2023-11-07T21:15:25.691Z,7.98
2023-11-07T21:17:56.928Z,8.03
2023-11-07T21:20:28.587Z,7.94
2023-11-07T21:22:59.816Z,8.02
2023-11-07T21:25:30.421Z,7.99
2023-11-07T21:28:01.129Z,7.96
2023-11-07T21:30:32.687Z,7.87
2023-11-07T21:33:05.082Z,7.78
2023-11-07T21:35:35.687Z,7.76
2023-11-07T21:38:06.468Z,7.79
2023-11-07T21:40:41.053Z,7.84
2023-11-07T21:43:12.872Z,7.76
2023-11-07T21:45:43.803Z,7.80
2023-11-07T21:48:16.907Z,7.80
2023-11-07T21:50:47.437Z,7.74
2023-11-07T21:53:18.309Z,7.74
2023-11-07T21:55:49.029Z,7.94
2023-11-07T21:58:19.522Z,7.86
2023-11-07T22:00:50.089Z,8.06
2023-11-07T22:03:20.999Z,7.89
2023-11-07T22:05:51.625Z,7.91
2023-11-07T22:08:22.117Z,7.92
2023-11-07T22:10:53.044Z,7.93
2023-11-07T22:13:25.641Z,7.98
2023-11-07T22:15:55.718Z,8.15
2023-11-07T22:18:26.229Z,8.10
2023-11-07T22:20:57.514Z,8.25
2023-11-07T22:23:28.814Z,8.40
2023-11-07T22:25:59.403Z,8.48
2023-11-07T22:28:30.223Z,8.54
2023-11-07T22:31:01.539Z,8.62
2023-11-07T22:33:32.417Z,8.53
2023-11-07T22:36:04.815Z,8.58
2023-11-07T22:38:36.341Z,8.52
2023-11-07T22:41:10.523Z,8.59
2023-11-07T22:43:41.441Z,8.58
2023-11-07T22:46:12.308Z,8.55
2023-11-07T22:48:43.163Z,8.60
2023-11-07T22:51:13.932Z,8.69
2023-11-07T22:53:45.293Z,8.58
2023-11-07T22:56:17.656Z,8.52
2023-11-07T22:58:48.130Z,8.68
2023-11-07T23:01:20.396Z,8.43
2023-11-07T23:03:51.926Z,8.52
2023-11-07T23:06:24.551Z,8.44
2023-11-07T23:08:55.284Z,8.47
2023-11-07T23:11:26.033Z,8.59
2023-11-07T23:13:58.304Z,8.52
2023-11-07T23:16:29.993Z,8.54
2023-11-07T23:19:00.924Z,8.59
2023-11-07T23:21:31.740Z,8.46
2023-11-07T23:24:06.170Z,8.67
2023-11-07T23:26:41.678Z,8.68
2023-11-07T23:29:08.722Z,8.54
2023-11-07T23:31:39.426Z,8.61
2023-11-07T23:34:11.375Z,8.64
2023-11-07T23:36:41.977Z,8.68
2023-11-07T23:39:13.025Z,8.63
2023-11-07T23:41:45.743Z,8.70
2023-11-07T23:44:16.709Z,8.85
2023-11-07T23:46:47.259Z,8.59
2023-11-07T23:49:19.694Z,8.66
2023-11-07T23:51:50.371Z,8.68
2023-11-07T23:54:21.040Z,8.58
2023-11-07T23:56:52.033Z,8.64
2023-11-07T23:59:22.774Z,8.64
